createdAt,value
2023-05-10T00:01:05.910Z,8.33
2023-05-10T00:03:35.365Z,8.31
2023-05-10T00:06:03.932Z,8.30
2023-05-10T00:08:35.700Z,8.29
2023-05-10T00:11:04.592Z,8.30
2023-05-10T00:13:34.409Z,8.31
2023-05-10T00:16:03.409Z,8.31
2023-05-10T00:18:30.611Z,8.28
2023-05-10T00:20:59.350Z,8.27
2023-05-10T00:23:31.593Z,8.25
2023-05-10T00:33:05.818Z,8.27
2023-05-10T00:35:33.755Z,8.25
2023-05-10T00:38:01.411Z,8.27
2023-05-10T00:40:29.915Z,8.28
2023-05-10T00:43:00.510Z,8.29
2023-05-10T00:45:28.203Z,8.28
2023-05-10T00:47:57.264Z,8.27
2023-05-10T00:50:27.144Z,8.26
2023-05-10T00:52:56.184Z,8.23
2023-05-10T00:55:23.464Z,8.20
2023-05-10T00:57:51.494Z,8.18
2023-05-10T01:00:19.492Z,8.17
2023-05-10T01:02:47.519Z,8.15
2023-05-10T01:05:14.919Z,8.13
2023-05-10T01:07:42.378Z,8.10
2023-05-10T01:10:11.797Z,8.08
2023-05-10T01:12:41.122Z,8.04
2023-05-10T01:15:28.572Z,7.98
2023-05-10T01:17:56.011Z,7.95
2023-05-10T01:20:24.765Z,7.94
2023-05-10T01:23:00.956Z,7.96
2023-05-10T01:25:38.759Z,8.03
2023-05-10T01:29:12.061Z,8.13
2023-05-10T01:32:10.677Z,8.20
2023-05-10T01:35:01.949Z,8.17
2023-05-10T01:37:57.496Z,8.10
2023-05-10T01:40:33.240Z,8.05
2023-05-10T01:43:05.409Z,8.02
2023-05-10T01:45:40.798Z,7.98
2023-05-10T01:48:11.694Z,7.95
2023-05-10T01:51:01.187Z,7.92
2023-05-10T01:53:30.984Z,7.88
2023-05-10T01:55:58.865Z,7.86
2023-05-10T01:59:06.780Z,7.88
2023-05-10T02:01:34.938Z,7.88
2023-05-10T02:04:02.217Z,7.88
2023-05-10T02:06:32.009Z,7.86
2023-05-10T02:09:00.005Z,7.84
2023-05-10T02:11:27.335Z,7.85
2023-05-10T02:13:56.481Z,7.87
2023-05-10T02:16:27.542Z,7.94
2023-05-10T02:18:55.212Z,7.99
2023-05-10T02:21:23.474Z,8.03
2023-05-10T02:23:50.995Z,8.04
2023-05-10T02:26:22.780Z,8.04
2023-05-10T02:28:50.274Z,8.03
2023-05-10T02:31:34.532Z,8.02
2023-05-10T02:34:03.045Z,8.02
2023-05-10T02:36:33.007Z,8.01
2023-05-10T02:39:00.377Z,8.00
2023-05-10T02:41:28.178Z,8.03
2023-05-10T02:43:58.859Z,8.06
2023-05-10T02:46:27.277Z,8.09
2023-05-10T02:48:54.452Z,8.11
2023-05-10T02:51:23.029Z,8.13
2023-05-10T02:53:50.435Z,8.14
2023-05-10T02:56:26.278Z,8.14
2023-05-10T02:58:54.402Z,8.13
2023-05-10T03:01:22.282Z,8.12
2023-05-10T03:03:51.431Z,8.11
2023-05-10T03:06:18.624Z,8.14
2023-05-10T03:08:45.865Z,8.18
2023-05-10T03:11:37.152Z,8.23
2023-05-10T03:14:28.439Z,8.30
2023-05-10T03:17:05.894Z,8.36
2023-05-10T03:19:59.214Z,8.40
2023-05-10T03:22:34.251Z,8.42
2023-05-10T03:25:26.469Z,8.44
2023-05-10T03:27:54.285Z,8.47
2023-05-10T03:30:27.560Z,8.48
2023-05-10T03:32:55.565Z,8.48
2023-05-10T03:35:22.861Z,8.49
2023-05-10T03:37:58.911Z,8.51
2023-05-10T03:40:41.849Z,8.59
2023-05-10T03:43:10.151Z,8.68
2023-05-10T03:45:44.839Z,8.79
2023-05-10T03:48:21.555Z,8.91
2023-05-10T03:51:30.945Z,9.02
2023-05-10T03:54:42.133Z,9.14
2023-05-10T03:57:29.922Z,9.27
2023-05-10T04:00:00.987Z,9.35
2023-05-10T04:02:28.852Z,9.43
2023-05-10T04:05:20.882Z,9.50
2023-05-10T04:08:12.527Z,9.58
2023-05-10T04:10:54.936Z,9.65
2023-05-10T04:13:24.685Z,9.71
2023-05-10T04:15:53.121Z,9.79
2023-05-10T04:18:27.678Z,9.86
2023-05-10T04:21:49.474Z,9.93
2023-05-10T04:24:41.322Z,10.03
2023-05-10T04:27:39.313Z,10.15
2023-05-10T04:30:14.696Z,10.22
2023-05-10T04:32:42.651Z,10.30
2023-05-10T04:35:32.448Z,10.36
2023-05-10T04:38:49.389Z,10.42
2023-05-10T04:41:18.424Z,10.51
2023-05-10T04:43:45.728Z,10.57
2023-05-10T04:46:13.059Z,10.63
2023-05-10T04:48:41.000Z,10.71
2023-05-10T04:51:08.437Z,10.80
2023-05-10T04:53:36.388Z,10.86
2023-05-10T04:56:05.534Z,10.91
2023-05-10T04:58:33.475Z,10.98
2023-05-10T05:01:09.092Z,11.04
2023-05-10T05:03:37.831Z,11.10
2023-05-10T05:06:10.652Z,11.18
2023-05-10T05:08:38.567Z,11.28
2023-05-10T05:11:22.237Z,11.35
2023-05-10T05:13:49.406Z,11.43
2023-05-10T05:16:16.937Z,11.50
2023-05-10T05:19:04.141Z,11.56
2023-05-10T05:21:52.435Z,11.63
2023-05-10T05:25:14.585Z,11.71
2023-05-10T05:28:21.163Z,11.75
2023-05-10T05:30:50.824Z,11.84
2023-05-10T05:33:43.456Z,11.89
2023-05-10T05:36:50.982Z,11.94
2023-05-10T05:39:56.428Z,11.99
2023-05-10T05:42:26.524Z,12.08
2023-05-10T05:44:58.020Z,12.14
2023-05-10T05:47:28.573Z,12.21
2023-05-10T05:49:57.075Z,12.28
2023-05-10T05:52:25.737Z,12.37
2023-05-10T05:54:54.396Z,12.44
2023-05-10T05:57:23.102Z,12.49
2023-05-10T05:59:52.007Z,12.60
2023-05-10T06:02:20.272Z,12.79
2023-05-10T06:04:50.685Z,12.97
2023-05-10T06:07:17.774Z,13.11
2023-05-10T06:09:44.967Z,13.28
2023-05-10T06:12:13.996Z,13.48
2023-05-10T06:15:01.180Z,13.62
2023-05-10T06:17:28.771Z,13.71
2023-05-10T06:19:56.683Z,13.81
2023-05-10T06:22:23.937Z,13.96
2023-05-10T06:24:51.603Z,14.13
2023-05-10T06:27:40.126Z,14.24
2023-05-10T06:30:12.923Z,14.36
2023-05-10T06:32:41.019Z,14.45
2023-05-10T06:35:10.067Z,14.50
2023-05-10T06:37:37.339Z,14.51
2023-05-10T06:40:10.480Z,14.43
2023-05-10T06:42:38.051Z,14.28
2023-05-10T06:45:10.333Z,14.17
2023-05-10T06:47:39.263Z,14.18
2023-05-10T06:50:10.853Z,14.08
2023-05-10T06:52:40.322Z,13.98
2023-05-10T06:55:10.184Z,13.88
2023-05-10T06:57:37.362Z,13.87
2023-05-10T07:00:25.162Z,13.86
2023-05-10T07:03:00.094Z,13.88
2023-05-10T07:05:30.998Z,13.88
2023-05-10T07:07:58.808Z,13.93
2023-05-10T07:10:27.981Z,13.97
2023-05-10T07:13:00.074Z,13.88
2023-05-10T07:15:28.010Z,13.73
2023-05-10T07:18:15.704Z,13.68
2023-05-10T07:20:45.617Z,13.96
2023-05-10T07:23:12.779Z,14.22
2023-05-10T07:25:40.175Z,14.24
2023-05-10T07:28:15.916Z,14.14
2023-05-10T07:30:43.527Z,13.99
2023-05-10T07:33:40.649Z,14.10
2023-05-10T07:36:09.518Z,14.27
2023-05-10T07:38:40.834Z,14.30
2023-05-10T07:41:10.641Z,14.25
2023-05-10T07:43:38.700Z,14.13
2023-05-10T07:46:12.517Z,14.18
2023-05-10T07:48:42.142Z,14.69
2023-05-10T07:51:11.522Z,15.35
2023-05-10T07:53:41.160Z,15.85
2023-05-10T07:56:33.538Z,16.27
2023-05-10T07:59:01.466Z,16.60
2023-05-10T08:01:36.049Z,16.49
2023-05-10T08:04:04.747Z,16.44
2023-05-10T08:06:33.123Z,16.47
2023-05-10T08:09:01.000Z,16.39
2023-05-10T08:11:29.283Z,16.09
2023-05-10T08:14:01.704Z,15.79
2023-05-10T08:16:37.335Z,15.53
2023-05-10T08:19:06.739Z,15.28
2023-05-10T08:21:36.240Z,15.06
2023-05-10T08:24:03.791Z,14.93
2023-05-10T08:26:45.822Z,14.90
2023-05-10T08:29:14.455Z,14.91
2023-05-10T08:31:57.448Z,14.81
2023-05-10T08:34:46.455Z,14.63
2023-05-10T08:37:35.671Z,14.36
2023-05-10T08:40:06.106Z,14.11
2023-05-10T08:42:38.645Z,13.88
2023-05-10T08:45:08.635Z,13.69
2023-05-10T08:47:38.137Z,13.50
2023-05-10T08:50:08.317Z,13.31
2023-05-10T08:52:37.856Z,13.11
2023-05-10T08:55:09.307Z,12.89
2023-05-10T08:57:42.757Z,12.71
2023-05-10T09:00:11.656Z,12.54
2023-05-10T09:02:56.341Z,12.42
2023-05-10T09:05:48.016Z,12.42
2023-05-10T09:08:32.444Z,12.40
2023-05-10T09:11:26.893Z,12.38
2023-05-10T09:13:54.879Z,12.41
2023-05-10T09:16:28.021Z,12.49
2023-05-10T09:19:36.065Z,12.65
2023-05-10T09:22:46.331Z,12.80
2023-05-10T09:26:24.697Z,12.96
2023-05-10T09:28:53.255Z,13.01
2023-05-10T09:31:55.341Z,13.03
2023-05-10T09:34:36.012Z,13.06
2023-05-10T09:37:05.725Z,13.06
2023-05-10T09:39:55.063Z,13.03
2023-05-10T09:42:32.566Z,13.01
2023-05-10T09:45:09.906Z,12.99
2023-05-10T09:47:38.362Z,12.96
2023-05-10T09:50:09.099Z,12.94
2023-05-10T09:52:56.402Z,12.89
2023-05-10T09:55:54.534Z,12.87
2023-05-10T09:58:24.062Z,12.84
2023-05-10T10:00:55.246Z,12.78
2023-05-10T10:03:29.684Z,12.73
2023-05-10T10:05:59.019Z,12.62
2023-05-10T10:08:35.325Z,12.55
2023-05-10T10:11:04.707Z,12.50
2023-05-10T10:14:01.593Z,12.51
2023-05-10T10:16:31.603Z,12.55
2023-05-10T10:19:40.615Z,12.67
2023-05-10T10:22:13.388Z,12.80
2023-05-10T10:24:42.411Z,12.93
2023-05-10T10:27:25.756Z,13.04
2023-05-10T10:30:38.209Z,13.12
2023-05-10T10:33:41.799Z,13.20
2023-05-10T10:36:38.462Z,13.28
2023-05-10T10:39:10.196Z,13.35
2023-05-10T10:41:59.121Z,13.39
2023-05-10T10:44:36.681Z,13.39
2023-05-10T10:47:41.443Z,13.38
2023-05-10T10:50:29.282Z,13.31
2023-05-10T10:52:56.772Z,13.32
2023-05-10T10:55:27.079Z,13.36
2023-05-10T10:58:01.614Z,13.42
2023-05-10T11:00:32.363Z,13.50
2023-05-10T11:03:15.108Z,13.60
2023-05-10T11:06:02.197Z,13.74
2023-05-10T11:09:13.218Z,13.87
2023-05-10T11:12:09.504Z,14.05
2023-05-10T11:14:37.086Z,14.15
2023-05-10T11:17:38.341Z,14.14
2023-05-10T11:20:34.652Z,14.01
2023-05-10T11:23:16.609Z,13.89
2023-05-10T11:25:45.660Z,13.83
2023-05-10T11:28:13.701Z,13.80
2023-05-10T11:30:41.951Z,13.80
2023-05-10T11:33:17.900Z,13.83
2023-05-10T11:35:47.316Z,13.84
2023-05-10T11:38:35.024Z,13.80
2023-05-10T11:41:04.935Z,13.69
2023-05-10T11:43:33.020Z,13.58
2023-05-10T11:46:05.131Z,13.43
2023-05-10T11:49:02.185Z,13.29
2023-05-10T11:51:29.762Z,13.13
2023-05-10T11:53:58.514Z,13.01
2023-05-10T11:56:56.397Z,12.87
2023-05-10T11:59:43.297Z,12.73
2023-05-10T12:02:11.210Z,12.62
2023-05-10T12:04:58.890Z,12.57
2023-05-10T12:07:49.227Z,12.57
2023-05-10T12:10:22.090Z,12.59
2023-05-10T12:12:50.378Z,12.62
2023-05-10T12:15:20.026Z,12.64
2023-05-10T12:17:47.507Z,12.68
2023-05-10T12:20:23.887Z,12.72
2023-05-10T12:23:28.189Z,12.77
2023-05-10T12:26:15.612Z,12.88
2023-05-10T12:28:47.509Z,12.99
2023-05-10T12:31:18.586Z,13.08
2023-05-10T12:33:47.424Z,13.15
2023-05-10T12:36:23.594Z,13.16
2023-05-10T12:38:53.127Z,13.07
2023-05-10T12:41:26.491Z,12.97
2023-05-10T12:44:03.648Z,12.91
2023-05-10T12:46:34.146Z,12.83
2023-05-10T12:49:22.252Z,12.73
2023-05-10T12:52:45.795Z,12.63
2023-05-10T12:55:22.319Z,12.53
2023-05-10T12:58:13.887Z,12.41
2023-05-10T13:00:46.800Z,12.29
2023-05-10T13:03:16.197Z,12.20
2023-05-10T13:06:10.020Z,12.09
2023-05-10T13:09:19.311Z,12.03
2023-05-10T13:12:09.998Z,11.99
2023-05-10T13:14:59.272Z,12.02
2023-05-10T13:18:11.220Z,12.08
2023-05-10T13:20:55.214Z,12.13
2023-05-10T13:23:25.784Z,12.18
2023-05-10T13:26:01.014Z,12.24
2023-05-10T13:28:32.071Z,12.30
2023-05-10T13:31:08.246Z,12.35
2023-05-10T13:34:14.014Z,12.39
2023-05-10T13:37:03.684Z,12.43
2023-05-10T13:40:00.307Z,12.46
2023-05-10T13:42:47.658Z,12.48
2023-05-10T13:45:17.879Z,12.51
2023-05-10T13:47:56.312Z,12.52
2023-05-10T13:51:12.281Z,12.55
2023-05-10T13:54:05.197Z,12.59
2023-05-10T13:56:54.533Z,12.62
2023-05-10T13:59:44.356Z,12.65
2023-05-10T14:03:03.578Z,12.68
2023-05-10T14:05:42.910Z,12.72
2023-05-10T14:08:43.388Z,12.76
2023-05-10T14:11:44.823Z,12.81
2023-05-10T14:14:35.109Z,12.84
2023-05-10T14:17:36.672Z,12.89
2023-05-10T14:20:12.787Z,12.96
2023-05-10T14:22:43.468Z,12.97
2023-05-10T14:25:11.941Z,12.96
2023-05-10T14:27:40.296Z,12.94
2023-05-10T14:30:11.221Z,12.91
2023-05-10T14:32:41.215Z,12.88
2023-05-10T14:35:14.491Z,12.86
2023-05-10T14:37:43.867Z,12.83
2023-05-10T14:40:12.367Z,12.79
2023-05-10T14:42:42.530Z,12.73
2023-05-10T14:45:15.246Z,12.68
2023-05-10T14:48:06.278Z,12.60
2023-05-10T14:50:39.207Z,12.54
2023-05-10T14:53:45.353Z,12.49
2023-05-10T14:56:14.439Z,12.42
2023-05-10T14:58:43.402Z,12.37
2023-05-10T15:01:13.487Z,12.31
2023-05-10T15:04:01.524Z,12.27
2023-05-10T15:06:33.132Z,12.22
2023-05-10T15:09:03.547Z,12.20
2023-05-10T15:11:35.417Z,12.20
2023-05-10T15:14:04.467Z,12.20
2023-05-10T15:16:35.833Z,12.18
2023-05-10T15:19:09.102Z,12.17
2023-05-10T15:21:45.408Z,12.15
2023-05-10T15:24:35.210Z,12.14
2023-05-10T15:27:08.793Z,12.14
2023-05-10T15:29:38.053Z,12.14
2023-05-10T15:32:08.013Z,12.13
2023-05-10T15:34:41.282Z,12.12
2023-05-10T15:37:10.606Z,12.11
2023-05-10T15:40:00.967Z,12.10
2023-05-10T15:42:38.190Z,12.08
2023-05-10T15:45:35.242Z,12.06
2023-05-10T15:48:21.569Z,12.03
2023-05-10T15:51:27.513Z,12.02
2023-05-10T15:54:06.431Z,12.01
2023-05-10T15:56:59.252Z,11.99
2023-05-10T15:59:30.127Z,11.99
2023-05-10T16:02:26.740Z,11.97
2023-05-10T16:05:20.089Z,11.97
2023-05-10T16:08:10.677Z,11.96
2023-05-10T16:10:43.956Z,11.96
2023-05-10T16:13:35.785Z,11.95
2023-05-10T16:16:04.847Z,11.96
2023-05-10T16:18:38.710Z,11.96
2023-05-10T16:21:12.452Z,11.96
2023-05-10T16:23:40.413Z,11.96
2023-05-10T16:26:23.675Z,11.96
2023-05-10T16:28:53.280Z,11.95
2023-05-10T16:31:25.460Z,11.94
2023-05-10T16:33:55.139Z,11.93
2023-05-10T16:36:24.682Z,11.90
2023-05-10T16:38:53.529Z,11.88
2023-05-10T16:41:22.862Z,11.85
2023-05-10T16:43:53.651Z,11.83
2023-05-10T16:46:25.730Z,11.81
2023-05-10T16:48:53.957Z,11.78
2023-05-10T16:51:21.873Z,11.74
2023-05-10T16:53:59.325Z,11.68
2023-05-10T16:56:39.049Z,11.64
2023-05-10T16:59:11.403Z,11.59
2023-05-10T17:01:42.444Z,11.56
2023-05-10T17:04:31.788Z,11.53
2023-05-10T17:07:01.565Z,11.49
2023-05-10T17:09:29.468Z,11.46
2023-05-10T17:11:59.140Z,11.43
2023-05-10T17:14:33.175Z,11.37
2023-05-10T17:17:06.429Z,11.29
2023-05-10T17:19:58.994Z,11.26
2023-05-10T17:22:47.044Z,11.22
2023-05-10T17:25:23.913Z,11.20
2023-05-10T17:27:57.124Z,11.16
2023-05-10T17:30:29.607Z,11.14
2023-05-10T17:33:07.645Z,11.10
2023-05-10T17:35:48.117Z,11.04
2023-05-10T17:38:19.279Z,10.97
2023-05-10T17:40:55.740Z,10.93
2023-05-10T17:44:04.359Z,10.85
2023-05-10T17:46:53.490Z,10.81
2023-05-10T17:49:25.079Z,10.73
2023-05-10T17:51:55.442Z,10.69
2023-05-10T17:54:27.223Z,10.67
2023-05-10T17:57:08.558Z,10.65
2023-05-10T17:59:48.741Z,10.62
2023-05-10T18:02:32.279Z,10.55
2023-05-10T18:05:02.283Z,10.44
2023-05-10T18:07:39.604Z,10.37
2023-05-10T18:10:48.660Z,10.28
2023-05-10T18:13:21.145Z,10.21
2023-05-10T18:15:57.820Z,10.16
2023-05-10T18:18:43.446Z,10.11
2023-05-10T18:21:15.033Z,10.03
2023-05-10T18:23:48.014Z,9.98
2023-05-10T18:26:17.905Z,9.92
2023-05-10T18:29:08.628Z,9.90
2023-05-10T18:32:20.338Z,9.87
2023-05-10T18:35:20.932Z,9.82
2023-05-10T18:37:49.205Z,9.77
2023-05-10T18:40:24.938Z,9.72
2023-05-10T18:43:09.692Z,9.69
2023-05-10T18:45:39.599Z,9.66
2023-05-10T18:48:10.536Z,9.64
2023-05-10T18:50:40.035Z,9.62
2023-05-10T18:53:09.235Z,9.62
2023-05-10T18:56:02.264Z,9.57
2023-05-10T18:58:46.633Z,9.51
2023-05-10T19:01:15.511Z,9.45
2023-05-10T19:03:50.358Z,9.41
2023-05-10T19:06:58.932Z,9.37
2023-05-10T19:09:46.923Z,9.33
2023-05-10T19:13:05.064Z,9.30
2023-05-10T19:15:33.639Z,9.30
2023-05-10T19:18:04.517Z,9.28
2023-05-10T19:20:56.317Z,9.28
2023-05-10T19:23:49.291Z,9.30
2023-05-10T19:26:21.200Z,9.32
2023-05-10T19:29:37.734Z,9.33
2023-05-10T19:32:48.937Z,9.33
2023-05-10T19:35:32.299Z,9.33
2023-05-10T19:38:01.649Z,9.32
2023-05-10T19:41:28.890Z,9.33
2023-05-10T19:43:57.281Z,9.31
2023-05-10T19:46:35.091Z,9.31
2023-05-10T19:49:05.273Z,9.33
2023-05-10T19:51:59.253Z,9.36
2023-05-10T19:54:33.132Z,9.35
2023-05-10T19:57:02.615Z,9.36
2023-05-10T19:59:50.560Z,9.33
2023-05-10T20:02:39.832Z,9.31
2023-05-10T20:05:08.380Z,9.26
2023-05-10T20:07:37.276Z,9.23
2023-05-10T20:10:05.860Z,9.20
2023-05-10T20:12:35.123Z,9.21
2023-05-10T20:15:05.871Z,9.22
2023-05-10T20:17:35.303Z,9.22
2023-05-10T20:20:04.378Z,9.17
2023-05-10T20:22:33.932Z,9.12
2023-05-10T20:25:01.523Z,9.08
2023-05-10T20:27:29.855Z,9.05
2023-05-10T20:30:13.765Z,9.02
2023-05-10T20:32:47.564Z,9.00
2023-05-10T20:35:23.382Z,8.98
2023-05-10T20:37:51.525Z,8.90
2023-05-10T20:40:19.450Z,8.80
2023-05-10T20:42:49.212Z,8.73
2023-05-10T20:45:22.640Z,8.67
2023-05-10T20:48:10.637Z,8.63
2023-05-10T20:50:39.973Z,8.62
2023-05-10T20:53:08.873Z,8.64
2023-05-10T20:55:37.767Z,8.67
2023-05-10T20:58:05.661Z,8.70
2023-05-10T21:00:34.941Z,8.73
2023-05-10T21:03:50.739Z,8.77
2023-05-10T21:06:18.497Z,8.75
2023-05-10T21:08:46.156Z,8.74
2023-05-10T21:11:36.073Z,8.74
2023-05-10T21:14:06.365Z,8.72
2023-05-10T21:16:35.012Z,8.73
2023-05-10T21:19:06.649Z,8.72
2023-05-10T21:21:34.628Z,8.70
2023-05-10T21:24:22.914Z,8.66
2023-05-10T21:26:52.275Z,8.64
2023-05-10T21:29:45.928Z,8.61
2023-05-10T21:32:16.093Z,8.58
2023-05-10T21:34:46.898Z,8.55
2023-05-10T21:37:35.362Z,8.53
2023-05-10T21:40:06.933Z,8.50
2023-05-10T21:42:35.490Z,8.48
2023-05-10T21:45:20.750Z,8.48
2023-05-10T21:47:49.226Z,8.46
2023-05-10T21:50:17.667Z,8.45
2023-05-10T21:53:05.342Z,8.43
2023-05-10T21:55:34.102Z,8.41
2023-05-10T21:58:04.586Z,8.40
2023-05-10T22:00:38.911Z,8.38
2023-05-10T22:03:15.126Z,8.37
2023-05-10T22:06:11.067Z,8.37
2023-05-10T22:08:39.303Z,8.38
2023-05-10T22:11:08.454Z,8.39
2023-05-10T22:13:58.410Z,8.39
2023-05-10T22:16:39.582Z,8.37
2023-05-10T22:19:07.063Z,8.36
2023-05-10T22:21:53.840Z,8.33
2023-05-10T22:24:26.734Z,8.32
2023-05-10T22:26:56.325Z,8.31
2023-05-10T22:29:46.093Z,8.30
2023-05-10T22:32:14.161Z,8.30
2023-05-10T22:34:42.723Z,8.29
2023-05-10T22:37:14.845Z,8.29
2023-05-10T22:39:43.007Z,8.27
2023-05-10T22:42:10.168Z,8.24
2023-05-10T22:44:38.358Z,8.22
2023-05-10T22:47:06.327Z,8.22
2023-05-10T22:49:42.438Z,8.19
2023-05-10T22:52:28.022Z,8.18
2023-05-10T22:54:56.824Z,8.16
2023-05-10T22:57:24.219Z,8.15
2023-05-10T22:59:51.831Z,8.14
2023-05-10T23:02:21.092Z,8.12
2023-05-10T23:04:57.392Z,8.10
2023-05-10T23:07:25.282Z,8.09
2023-05-10T23:10:02.996Z,8.07
2023-05-10T23:12:35.429Z,8.04
2023-05-10T23:15:05.611Z,8.02
2023-05-10T23:17:36.974Z,8.00
2023-05-10T23:20:06.067Z,7.97
2023-05-10T23:22:38.584Z,7.95
2023-05-10T23:25:09.983Z,7.94
2023-05-10T23:27:37.263Z,7.93
2023-05-10T23:30:21.340Z,7.90
2023-05-10T23:33:00.521Z,7.87
2023-05-10T23:35:31.234Z,7.82
2023-05-10T23:38:56.473Z,7.75
2023-05-10T23:41:26.040Z,7.70
2023-05-10T23:44:04.426Z,7.72
2023-05-10T23:46:34.248Z,7.75
2023-05-10T23:49:02.841Z,7.75
2023-05-10T23:51:32.809Z,7.79
2023-05-10T23:54:01.613Z,7.83
2023-05-10T23:56:50.997Z,7.84
2023-05-10T23:59:35.863Z,7.83
